createdAt,value
2019-04-27T00:00:44.673Z,6.83
2019-04-27T00:03:20.447Z,8.00
2019-04-27T00:06:08.533Z,7.97
2019-04-27T00:08:50.960Z,7.62
2019-04-27T00:11:45.432Z,9.58
2019-04-27T00:14:32.994Z,6.17
2019-04-27T00:17:40.344Z,6.92
2019-04-27T00:20:04.401Z,6.80
2019-04-27T00:23:39.260Z,6.58
2019-04-27T00:33:40.853Z,7.00
2019-04-27T00:36:23.256Z,7.42
2019-04-27T00:39:22.915Z,7.60
2019-04-27T00:42:59.661Z,8.30
2019-04-27T00:48:55.794Z,11.43
2019-04-27T01:20:48.913Z,8.03
2019-04-27T01:53:08.824Z,10.15
2019-04-27T01:56:09.236Z,10.65
2019-04-27T01:59:23.516Z,9.53
2019-04-27T02:02:21.137Z,10.15
2019-04-27T02:05:18.863Z,11.25
2019-04-27T02:07:49.099Z,11.55
2019-04-27T02:10:19.170Z,8.43
2019-04-27T02:12:48.742Z,8.53
2019-04-27T02:15:19.155Z,10.85
2019-04-27T02:17:50.683Z,9.95
2019-04-27T02:20:19.822Z,11.05
2019-04-27T02:22:50.748Z,13.22
2019-04-27T02:25:21.185Z,10.00
2019-04-27T02:27:54.991Z,11.85
2019-04-27T02:30:57.088Z,8.75
2019-04-27T02:33:40.165Z,11.25
2019-04-27T02:36:14.587Z,12.95
2019-04-27T02:38:40.577Z,13.20
2019-04-27T02:41:10.302Z,8.65
2019-04-27T02:43:44.820Z,8.35
2019-04-27T02:46:14.227Z,10.30
2019-04-27T02:48:55.636Z,8.33
2019-04-27T02:51:17.194Z,11.63
2019-04-27T02:54:00.152Z,10.53
2019-04-27T02:56:30.541Z,12.45
2019-04-27T02:58:59.989Z,12.28
2019-04-27T03:01:31.621Z,9.35
2019-04-27T03:04:00.865Z,11.38
2019-04-27T03:06:30.351Z,9.63
2019-04-27T03:09:00.447Z,11.00
2019-04-27T03:11:31.469Z,10.72
2019-04-27T03:14:36.388Z,11.00
2019-04-27T03:17:14.142Z,10.10
2019-04-27T03:20:05.208Z,12.23
2019-04-27T03:22:46.462Z,14.05
2019-04-27T03:25:34.938Z,12.65
2019-04-27T03:28:12.210Z,10.38
2019-04-27T03:30:42.842Z,14.35
2019-04-27T03:33:12.765Z,14.18
2019-04-27T03:35:43.741Z,15.38
2019-04-27T03:38:13.384Z,10.88
2019-04-27T03:40:42.671Z,12.23
2019-04-27T03:43:21.317Z,12.18
2019-04-27T03:45:52.315Z,14.73
2019-04-27T03:48:21.594Z,15.85
2019-04-27T03:51:13.018Z,12.13
2019-04-27T03:54:04.169Z,12.10
2019-04-27T03:56:35.834Z,17.02
2019-04-27T03:59:32.629Z,12.70
2019-04-27T04:06:35.809Z,13.90
2019-04-27T04:17:02.286Z,13.05
2019-04-27T04:22:42.909Z,13.78
2019-04-27T04:25:20.055Z,14.55
2019-04-27T04:27:57.070Z,18.52
2019-04-27T04:30:31.547Z,15.40
2019-04-27T04:33:10.113Z,14.73
2019-04-27T04:35:59.724Z,17.70
2019-04-27T04:38:35.970Z,14.75
2019-04-27T04:41:30.367Z,16.20
2019-04-27T04:44:30.206Z,14.30
2019-04-27T04:47:36.408Z,16.55
2019-04-27T04:50:34.233Z,17.65
2019-04-27T04:53:22.820Z,17.15
2019-04-27T04:56:12.223Z,18.92
2019-04-27T04:58:49.793Z,15.05
2019-04-27T05:01:22.527Z,16.20
2019-04-27T05:04:04.266Z,18.15
2019-04-27T05:06:50.755Z,17.92
2019-04-27T05:09:41.495Z,16.65
2019-04-27T05:12:36.125Z,18.20
2019-04-27T05:19:28.984Z,17.98
2019-04-27T05:28:32.273Z,15.90
2019-04-27T05:41:41.902Z,16.02
2019-04-27T05:44:49.051Z,22.17
2019-04-27T05:47:48.428Z,17.90
2019-04-27T05:50:21.981Z,16.45
2019-04-27T05:53:15.948Z,17.05
2019-04-27T05:56:23.133Z,18.42
2019-04-27T06:03:04.023Z,14.07
2019-04-27T06:06:01.744Z,14.98
2019-04-27T06:09:01.042Z,17.67
2019-04-27T06:11:33.244Z,15.10
2019-04-27T06:14:02.578Z,15.95
2019-04-27T06:16:31.874Z,13.80
2019-04-27T06:19:01.186Z,17.17
2019-04-27T06:21:30.466Z,15.72
2019-04-27T06:24:37.017Z,13.10
2019-04-27T06:31:54.461Z,12.85
2019-04-27T06:34:30.943Z,15.43
2019-04-27T06:37:04.770Z,16.50
2019-04-27T06:39:43.653Z,14.73
2019-04-27T06:45:33.391Z,15.83
2019-04-27T06:48:04.607Z,19.23
2019-04-27T06:50:38.995Z,14.50
2019-04-27T06:53:09.105Z,17.32
2019-04-27T06:55:39.224Z,16.07
2019-04-27T06:58:09.048Z,16.12
2019-04-27T07:00:39.507Z,17.52
2019-04-27T07:03:10.686Z,19.23
2019-04-27T07:05:40.069Z,16.37
2019-04-27T07:08:09.490Z,15.18
2019-04-27T07:10:39.262Z,16.73
2019-04-27T07:13:11.818Z,17.70
2019-04-27T07:15:41.709Z,17.55
2019-04-27T07:18:11.026Z,17.82
2019-04-27T07:20:40.386Z,15.05
2019-04-27T07:23:09.735Z,17.02
2019-04-27T07:25:39.287Z,17.70
2019-04-27T07:28:09.602Z,20.20
2019-04-27T07:30:39.621Z,17.80
2019-04-27T07:33:10.041Z,17.77
2019-04-27T07:35:41.347Z,16.85
2019-04-27T07:38:12.165Z,23.02
2019-04-27T07:40:43.381Z,17.50
2019-04-27T07:43:24.382Z,17.27
2019-04-27T07:45:53.830Z,17.32
2019-04-27T07:48:23.174Z,19.48
2019-04-27T07:50:53.036Z,16.40
2019-04-27T07:53:29.779Z,16.70
2019-04-27T07:56:02.255Z,19.07
2019-04-27T07:58:34.754Z,18.65
2019-04-27T08:01:04.163Z,17.23
2019-04-27T08:03:41.382Z,23.45
2019-04-27T08:06:13.968Z,17.30
2019-04-27T08:08:46.294Z,19.42
2019-04-27T08:11:58.807Z,18.85
2019-04-27T08:14:29.995Z,19.23
2019-04-27T08:20:16.763Z,23.62
2019-04-27T08:22:53.671Z,17.17
2019-04-27T08:32:31.351Z,22.85
2019-04-27T08:41:59.539Z,20.25
2019-04-27T08:45:29.252Z,26.48
2019-04-27T08:49:05.461Z,24.55
2019-04-27T08:51:58.814Z,25.50
2019-04-27T08:54:51.583Z,24.77
2019-04-27T08:57:43.326Z,26.27
2019-04-27T09:00:13.697Z,28.38
2019-04-27T09:02:47.375Z,25.12
2019-04-27T09:05:31.448Z,26.90
2019-04-27T09:08:42.515Z,21.55
2019-04-27T09:11:30.191Z,22.58
2019-04-27T09:14:05.902Z,28.05
2019-04-27T09:17:29.170Z,23.98
2019-04-27T09:38:33.019Z,22.22
2019-04-27T09:41:48.117Z,22.82
2019-04-27T09:44:45.680Z,27.13
2019-04-27T09:47:56.104Z,20.95
2019-04-27T09:50:36.077Z,23.20
2019-04-27T09:53:18.651Z,30.12
2019-04-27T09:55:48.019Z,21.02
2019-04-27T09:58:18.442Z,20.62
2019-04-27T10:00:50.014Z,21.50
2019-04-27T10:03:22.370Z,23.38
2019-04-27T10:05:51.649Z,24.02
2019-04-27T10:08:21.082Z,25.92
2019-04-27T10:10:52.407Z,19.52
2019-04-27T10:13:21.695Z,24.43
2019-04-27T10:15:51.073Z,20.55
2019-04-27T10:18:22.353Z,21.00
2019-04-27T10:20:59.873Z,25.25
2019-04-27T10:23:24.138Z,20.72
2019-04-27T10:25:55.728Z,21.50
2019-04-27T10:28:25.037Z,25.43
2019-04-27T10:30:55.732Z,19.40
2019-04-27T10:33:26.274Z,22.90
2019-04-27T10:35:56.582Z,18.87
2019-04-27T10:38:26.773Z,18.55
2019-04-27T10:41:00.160Z,16.77
2019-04-27T10:43:29.437Z,18.17
2019-04-27T10:45:59.547Z,16.07
2019-04-27T10:48:28.986Z,14.55
2019-04-27T10:51:00.677Z,15.55
2019-04-27T10:57:00.084Z,14.47
2019-04-27T10:59:29.345Z,15.38
2019-04-27T11:02:01.566Z,14.38
2019-04-27T11:04:46.227Z,13.60
2019-04-27T11:07:19.306Z,15.43
2019-04-27T11:09:48.563Z,14.25
2019-04-27T11:12:17.894Z,19.62
2019-04-27T11:14:47.235Z,12.85
2019-04-27T11:17:16.560Z,12.47
2019-04-27T11:19:46.078Z,14.47
2019-04-27T11:22:16.310Z,10.75
2019-04-27T11:24:45.815Z,13.68
2019-04-27T11:27:16.640Z,15.90
2019-04-27T11:29:46.302Z,18.73
2019-04-27T11:32:17.782Z,18.92
2019-04-27T11:35:22.138Z,23.15
2019-04-27T11:37:55.711Z,24.20
2019-04-27T11:40:25.548Z,23.15
2019-04-27T11:42:57.015Z,23.50
2019-04-27T11:45:28.480Z,20.25
2019-04-27T11:47:58.469Z,19.82
2019-04-27T11:50:27.833Z,24.40
2019-04-27T11:52:57.114Z,17.42
2019-04-27T11:55:27.390Z,15.35
2019-04-27T11:57:58.261Z,18.73
2019-04-27T12:01:10.664Z,15.78
2019-04-27T12:03:39.893Z,13.45
2019-04-27T12:06:09.541Z,13.28
2019-04-27T12:08:39.111Z,14.07
2019-04-27T12:14:08.383Z,12.88
2019-04-27T12:16:37.629Z,12.85
2019-04-27T12:19:06.998Z,9.05
2019-04-27T12:21:42.449Z,8.63
2019-04-27T12:24:11.737Z,10.98
2019-04-27T12:27:12.565Z,14.65
2019-04-27T12:30:10.598Z,10.45
2019-04-27T12:32:40.169Z,12.45
2019-04-27T12:35:13.074Z,8.98
2019-04-27T12:37:45.706Z,8.80
2019-04-27T12:40:16.653Z,11.10
2019-04-27T12:43:30.451Z,7.45
2019-04-27T12:46:05.924Z,7.95
2019-04-27T12:48:38.277Z,8.13
2019-04-27T12:51:08.273Z,6.28
2019-04-27T12:53:52.997Z,8.13
2019-04-27T12:56:34.189Z,8.10
2019-04-27T12:59:15.341Z,5.95
2019-04-27T13:01:46.227Z,7.90
2019-04-27T13:04:15.559Z,5.83
2019-04-27T13:06:44.771Z,6.28
2019-04-27T13:09:15.559Z,8.28
2019-04-27T13:11:45.907Z,7.33
2019-04-27T13:14:16.355Z,10.93
2019-04-27T13:16:47.410Z,5.97
2019-04-27T13:19:17.168Z,9.18
2019-04-27T13:21:47.032Z,10.93
2019-04-27T13:24:16.717Z,6.60
2019-04-27T13:26:46.941Z,9.65
2019-04-27T13:29:25.693Z,6.40
2019-04-27T13:31:57.581Z,6.72
2019-04-27T13:34:26.576Z,7.33
2019-04-27T13:36:56.545Z,5.72
2019-04-27T13:39:26.841Z,6.28
2019-04-27T13:42:00.765Z,8.48
2019-04-27T13:44:29.987Z,6.58
2019-04-27T13:47:50.811Z,6.78
2019-04-27T13:50:45.701Z,5.25
2019-04-27T13:53:55.783Z,6.45
2019-04-27T13:56:27.370Z,9.38
2019-04-27T14:02:56.286Z,8.28
2019-04-27T14:05:28.861Z,6.78
2019-04-27T14:08:00.989Z,6.35
2019-04-27T14:11:01.218Z,7.35
2019-04-27T14:13:33.216Z,8.65
2019-04-27T14:16:28.996Z,9.50
2019-04-27T14:18:56.902Z,7.83
2019-04-27T14:25:23.819Z,11.95
2019-04-27T14:27:53.052Z,10.88
2019-04-27T14:30:22.621Z,13.95
2019-04-27T14:32:52.981Z,13.85
2019-04-27T14:35:24.781Z,20.35
2019-04-27T14:37:54.325Z,12.00
2019-04-27T14:40:24.481Z,14.03
2019-04-27T14:42:54.353Z,11.53
2019-04-27T14:45:26.218Z,9.80
2019-04-27T14:48:24.046Z,10.43
2019-04-27T14:50:54.119Z,12.68
2019-04-27T14:53:23.728Z,10.90
2019-04-27T14:55:53.089Z,12.40
2019-04-27T14:58:22.327Z,11.18
2019-04-27T15:00:52.097Z,11.00
2019-04-27T15:03:21.659Z,8.78
2019-04-27T15:05:53.843Z,16.35
2019-04-27T15:08:21.910Z,9.60
2019-04-27T15:10:51.231Z,11.22
2019-04-27T15:13:20.671Z,10.82
2019-04-27T15:15:49.986Z,12.75
2019-04-27T15:18:19.786Z,11.33
2019-04-27T15:20:49.074Z,12.53
2019-04-27T15:23:20.642Z,14.25
2019-04-27T15:25:50.164Z,12.58
2019-04-27T15:28:25.309Z,9.65
2019-04-27T15:31:24.908Z,9.55
2019-04-27T15:34:03.725Z,11.20
2019-04-27T15:36:56.493Z,10.60
2019-04-27T15:40:00.056Z,11.88
2019-04-27T15:42:48.970Z,13.18
2019-04-27T15:45:15.784Z,11.48
2019-04-27T15:47:49.266Z,11.20
2019-04-27T15:50:18.077Z,14.38
2019-04-27T15:52:48.783Z,14.05
2019-04-27T15:55:31.567Z,13.40
2019-04-27T15:57:50.435Z,14.43
2019-04-27T16:00:25.365Z,12.85
2019-04-27T16:02:54.771Z,14.78
2019-04-27T16:05:28.589Z,10.18
2019-04-27T16:08:01.035Z,12.68
2019-04-27T16:10:26.001Z,8.45
2019-04-27T16:13:06.704Z,9.20
2019-04-27T16:15:29.822Z,8.30
2019-04-27T16:17:59.136Z,9.68
2019-04-27T16:20:33.616Z,10.38
2019-04-27T16:23:03.108Z,9.35
2019-04-27T16:25:45.178Z,8.28
2019-04-27T16:28:04.737Z,10.28
2019-04-27T16:30:36.198Z,7.12
2019-04-27T16:33:10.108Z,8.30
2019-04-27T16:35:39.402Z,5.65
2019-04-27T16:38:33.553Z,6.17
2019-04-27T16:40:59.668Z,5.85
2019-04-27T16:43:32.634Z,16.97
2019-04-27T16:46:04.269Z,6.80
2019-04-27T16:48:34.636Z,14.13
2019-04-27T16:51:02.166Z,6.45
2019-04-27T16:53:39.538Z,8.63
2019-04-27T16:56:15.192Z,6.03
2019-04-27T16:58:40.844Z,6.03
2019-04-27T17:01:25.412Z,6.53
2019-04-27T17:03:54.973Z,6.47
2019-04-27T17:06:29.349Z,8.75
2019-04-27T17:09:05.467Z,6.42
2019-04-27T17:11:29.969Z,8.00
2019-04-27T17:14:11.902Z,12.70
2019-04-27T17:17:03.792Z,10.60
2019-04-27T17:19:58.942Z,7.33
2019-04-27T17:22:28.711Z,10.58
2019-04-27T17:24:58.181Z,8.60
2019-04-27T17:27:38.315Z,5.62
2019-04-27T17:30:09.260Z,10.78
2019-04-27T17:32:48.776Z,9.48
2019-04-27T17:35:18.501Z,7.67
2019-04-27T17:37:48.863Z,7.28
2019-04-27T17:40:18.358Z,6.08
2019-04-27T17:42:49.954Z,7.05
2019-04-27T17:45:21.653Z,8.45
2019-04-27T17:47:50.250Z,5.65
2019-04-27T17:50:25.167Z,6.70
2019-04-27T17:52:55.084Z,7.25
2019-04-27T17:55:24.435Z,8.85
2019-04-27T17:57:52.314Z,7.35
2019-04-27T18:00:22.092Z,9.70
2019-04-27T18:02:51.333Z,10.72
2019-04-27T18:05:20.578Z,14.60
2019-04-27T18:07:51.645Z,9.18
2019-04-27T18:10:24.323Z,9.73
2019-04-27T18:12:52.243Z,8.50
2019-04-27T18:15:21.647Z,8.30
2019-04-27T18:17:52.619Z,7.85
2019-04-27T18:20:24.407Z,2.60
2019-04-27T18:23:02.822Z,3.72
2019-04-27T18:25:39.572Z,6.20
2019-04-27T18:28:16.159Z,2.25
2019-04-27T18:31:11.507Z,1.90
2019-04-27T18:33:43.085Z,2.37
2019-04-27T18:36:14.258Z,3.20
2019-04-27T18:38:44.732Z,3.10
2019-04-27T18:41:14.103Z,3.85
2019-04-27T18:43:51.003Z,3.60
2019-04-27T18:46:14.840Z,7.25
2019-04-27T18:49:04.413Z,2.58
2019-04-27T18:51:52.621Z,2.25
2019-04-27T18:54:24.842Z,2.30
2019-04-27T18:57:02.209Z,2.47
2019-04-27T18:59:25.253Z,1.77
2019-04-27T19:01:54.567Z,3.15
2019-04-27T19:04:23.862Z,3.17
2019-04-27T19:06:53.225Z,2.90
2019-04-27T19:09:23.176Z,4.35
2019-04-27T19:11:56.121Z,3.27
2019-04-27T19:14:23.381Z,2.40
2019-04-27T19:16:52.595Z,6.03
2019-04-27T19:19:21.904Z,1.95
2019-04-27T19:21:51.194Z,5.60
2019-04-27T19:24:20.425Z,3.25
2019-04-27T19:27:16.171Z,4.90
2019-04-27T19:29:43.169Z,4.92
2019-04-27T19:32:13.855Z,3.12
2019-04-27T19:34:43.347Z,3.50
2019-04-27T19:37:13.273Z,2.17
2019-04-27T19:39:42.532Z,2.98
2019-04-27T19:42:14.106Z,2.92
2019-04-27T19:44:44.325Z,2.72
2019-04-27T19:47:13.546Z,5.80
2019-04-27T19:49:43.290Z,6.65
2019-04-27T19:52:12.966Z,6.20
2019-04-27T19:54:42.550Z,3.05
2019-04-27T19:57:52.674Z,3.47
2019-04-27T20:00:34.979Z,3.10
2019-04-27T20:03:11.117Z,3.25
2019-04-27T20:05:59.459Z,4.40
2019-04-27T20:08:32.214Z,3.95
2019-04-27T20:11:45.980Z,6.15
2019-04-27T20:14:15.786Z,5.90
2019-04-27T20:17:08.941Z,6.08
2019-04-27T20:20:27.721Z,3.33
2019-04-27T20:26:13.990Z,5.60
2019-04-27T20:29:02.526Z,4.42
2019-04-27T20:31:34.468Z,3.85
2019-04-27T20:34:25.861Z,5.15
2019-04-27T20:37:05.845Z,2.98
2019-04-27T20:39:36.259Z,3.37
2019-04-27T20:42:12.659Z,3.55
2019-04-27T20:44:51.589Z,7.42
2019-04-27T20:47:21.422Z,3.85
2019-04-27T20:49:51.124Z,3.80
2019-04-27T20:52:48.839Z,4.72
2019-04-27T20:55:32.219Z,6.90
2019-04-27T20:58:04.476Z,5.40
2019-04-27T21:00:36.368Z,4.67
2019-04-27T21:03:34.141Z,3.58
2019-04-27T21:06:24.075Z,5.22
2019-04-27T21:09:16.606Z,4.70
2019-04-27T21:11:50.818Z,4.50
2019-04-27T21:14:21.851Z,5.62
2019-04-27T21:20:30.827Z,23.30
2019-04-27T21:23:03.162Z,5.00
2019-04-27T21:25:33.601Z,9.00
2019-04-27T21:28:15.619Z,5.78
2019-04-27T21:30:34.147Z,6.55
2019-04-27T21:33:04.980Z,6.58
2019-04-27T21:35:35.741Z,6.95
2019-04-27T21:38:05.243Z,6.65
2019-04-27T21:40:35.911Z,5.85
2019-04-27T21:43:05.381Z,5.33
2019-04-27T21:45:34.884Z,4.80
2019-04-27T21:48:12.770Z,8.38
2019-04-27T21:51:01.596Z,6.50
2019-04-27T21:53:36.706Z,5.53
2019-04-27T21:56:08.026Z,4.53
2019-04-27T21:58:37.267Z,4.53
2019-04-27T22:01:13.226Z,3.77
2019-04-27T22:03:42.637Z,3.60
2019-04-27T22:06:11.955Z,3.77
2019-04-27T22:08:41.257Z,3.10
2019-04-27T22:11:11.711Z,4.65
2019-04-27T22:13:41.274Z,2.67
2019-04-27T22:16:12.750Z,1.75
2019-04-27T22:18:41.773Z,1.90
2019-04-27T22:21:11.643Z,2.60
2019-04-27T22:23:47.170Z,1.70
2019-04-27T22:26:16.435Z,2.05
2019-04-27T22:28:49.325Z,3.05
2019-04-27T22:31:16.738Z,5.03
2019-04-27T22:33:46.106Z,1.40
2019-04-27T22:36:15.755Z,1.65
2019-04-27T22:39:05.912Z,1.40
2019-04-27T22:41:46.044Z,1.47
2019-04-27T22:44:28.165Z,1.50
2019-04-27T22:46:57.419Z,1.32
2019-04-27T22:49:27.008Z,1.50
2019-04-27T22:51:56.201Z,1.35
2019-04-27T22:54:25.519Z,1.75
2019-04-27T22:56:56.626Z,1.95
2019-04-27T22:59:47.751Z,1.92
2019-04-27T23:02:34.367Z,1.65
2019-04-27T23:05:05.295Z,1.55
2019-04-27T23:07:34.922Z,4.28
2019-04-27T23:10:05.330Z,3.35
2019-04-27T23:12:34.563Z,2.37
2019-04-27T23:15:06.010Z,3.20
2019-04-27T23:17:55.178Z,3.95
2019-04-27T23:20:24.653Z,1.85
2019-04-27T23:22:55.501Z,1.60
2019-04-27T23:25:24.723Z,1.60
2019-04-27T23:27:54.035Z,2.50
2019-04-27T23:30:31.264Z,1.80
2019-04-27T23:33:01.252Z,2.77
2019-04-27T23:35:32.981Z,2.37
2019-04-27T23:38:14.861Z,2.22
2019-04-27T23:40:33.187Z,3.33
2019-04-27T23:43:02.393Z,1.40
2019-04-27T23:45:31.922Z,1.42
2019-04-27T23:48:01.234Z,1.40
2019-04-27T23:50:32.133Z,1.95
2019-04-27T23:53:06.515Z,3.05
2019-04-27T23:55:36.070Z,1.90
2019-04-27T23:58:05.874Z,2.42
